Airfield :
LOGIN :

Register | Disclaimer

   EN    FR    IT 

 










Legend :    VFR   Marginal VFR   IFR   Intensive IFR   Very Intensive IFR
Visi :
Ceiling :
>= 8 km
>= 3000ft
5 to 8 km
1000 to 3000 ft
1500m to 5 km
500 to 1000 ft
800 to 1500m
200 to 500 ft
< 800m
< 200 ft
Symbols :   Thunderstorms  Fog  Heavy snow  Heavy precipitations  Wind > 20 kt
SIGMETs :     Misc.  Thunderstorms  Icing  Turbulence  Mountain Waves  Volcanic Ashes






- Airport Elevation : 1470 ft
- IATA code : KLU


LOWK - Klagenfurt

CURRENT METAR :
  • 032220Z AUTO 30003KT 260V350 9999 NSC 23/15 Q1019

EXPIRED METARs :
  • 032150Z AUTO 32004KT 9999 NCD 23/16 Q1019
  • 032120Z AUTO VRB01KT CAVOK 23/15 Q1019 NOSIG
  • 032050Z AUTO VRB02KT 9999 FEW060 24/15 Q1019 NOSIG
  • 032020Z AUTO 09004KT 060V140 9999 FEW060 24/14 Q1019 NOSIG

TAF AMD TAF LOWK
Valid from the 03 at 22:00 until the 04 at 18:00 UTC


032233Z 0322/0418 VRB04KT 9999 FEW060 TX29/0412Z TN18/0404Z
TEMPO 0322/0402 FEW050CB
TEMPO 0412/0418 FEW050CB SCT070
TEMPO 0414/0418 VRB15G25KT SHRA TSRA



MET'MAP, your aeronautical weather chart ! - Copyright ORBIFLY December 2007 - Disclaimer

ORBIFLY MET'MAP TEAM :

Programming & Development : Alexandra Zaïnal
Original concept : Baudouin d'Aumeries
Technical & hardware support : Manuel Goepfert
Assistance : Marc-Olivier Méhu




SOURCES & CREDITS :

   NOAA